sensor_id;sensor_type;location;lat;lon;timestamp;pressure;altitude;pressure_sealevel;temperature;humidity
20860;BME280;10590;48.154;11.514;2024-02-28T00:04:40;95461.53;;;6.03;86.96
20860;BME280;10590;48.154;11.514;2024-02-28T00:10:03;95458.63;;;5.86;87.79
20860;BME280;10590;48.154;11.514;2024-02-28T00:15:26;95454.06;;;5.91;87.65
20860;BME280;10590;48.154;11.514;2024-02-28T00:20:47;95466.56;;;6.04;86.76
20860;BME280;10590;48.154;11.514;2024-02-28T00:26:11;95472.09;;;6.08;86.92
20860;BME280;10590;48.154;11.514;2024-02-28T00:31:33;95457.78;;;6.09;86.68
20860;BME280;10590;48.154;11.514;2024-02-28T00:36:55;95469.34;;;6.13;86.29
20860;BME280;10590;48.154;11.514;2024-02-28T00:42:18;95477.72;;;6.01;87.14
20860;BME280;10590;48.154;11.514;2024-02-28T00:47:40;95477.44;;;6.03;86.98
20860;BME280;10590;48.154;11.514;2024-02-28T00:53:02;95493.31;;;6.22;86.24
20860;BME280;10590;48.154;11.514;2024-02-28T00:58:25;95508.94;;;6.23;86.32
20860;BME280;10590;48.154;11.514;2024-02-28T01:03:48;95509.50;;;6.20;86.51
20860;BME280;10590;48.154;11.514;2024-02-28T01:09:10;95533.56;;;6.05;87.18
20860;BME280;10590;48.154;11.514;2024-02-28T01:14:33;95535.50;;;5.99;87.42
20860;BME280;10590;48.154;11.514;2024-02-28T01:19:54;95539.44;;;6.02;87.41
20860;BME280;10590;48.154;11.514;2024-02-28T01:25:16;95551.03;;;6.06;87.44
20860;BME280;10590;48.154;11.514;2024-02-28T01:30:40;95561.28;;;6.13;87.13
20860;BME280;10590;48.154;11.514;2024-02-28T01:36:02;95571.59;;;6.14;86.86
20860;BME280;10590;48.154;11.514;2024-02-28T01:41:23;95559.41;;;6.13;87.19
20860;BME280;10590;48.154;11.514;2024-02-28T01:46:46;95558.72;;;6.07;87.20
20860;BME280;10590;48.154;11.514;2024-02-28T01:52:08;95560.03;;;6.05;88.56
20860;BME280;10590;48.154;11.514;2024-02-28T01:57:32;95551.91;;;6.20;86.55
20860;BME280;10590;48.154;11.514;2024-02-28T02:02:55;95554.47;;;6.25;86.73
20860;BME280;10590;48.154;11.514;2024-02-28T02:08:17;95546.38;;;6.17;87.35
20860;BME280;10590;48.154;11.514;2024-02-28T02:13:47;95558.44;;;6.09;87.64
20860;BME280;10590;48.154;11.514;2024-02-28T02:19:11;95543.03;;;6.11;87.09
20860;BME280;10590;48.154;11.514;2024-02-28T02:24:35;95556.97;;;5.98;87.88
20860;BME280;10590;48.154;11.514;2024-02-28T02:29:56;95557.72;;;5.80;89.61
20860;BME280;10590;48.154;11.514;2024-02-28T02:35:18;95553.00;;;5.58;90.69
20860;BME280;10590;48.154;11.514;2024-02-28T02:40:41;95546.13;;;5.75;90.46
20860;BME280;10590;48.154;11.514;2024-02-28T02:46:03;95548.06;;;5.89;88.72
20860;BME280;10590;48.154;11.514;2024-02-28T02:51:25;95547.56;;;5.87;88.98
20860;BME280;10590;48.154;11.514;2024-02-28T02:56:48;95566.75;;;5.79;89.70
20860;BME280;10590;48.154;11.514;2024-02-28T03:02:10;95576.84;;;5.76;89.01
20860;BME280;10590;48.154;11.514;2024-02-28T03:07:32;95570.28;;;5.50;89.90
20860;BME280;10590;48.154;11.514;2024-02-28T03:12:55;95586.56;;;5.38;91.16
20860;BME280;10590;48.154;11.514;2024-02-28T03:18:16;95586.34;;;5.35;91.35
20860;BME280;10590;48.154;11.514;2024-02-28T03:23:39;95593.50;;;5.34;91.19
20860;BME280;10590;48.154;11.514;2024-02-28T03:29:02;95594.75;;;5.42;90.61
20860;BME280;10590;48.154;11.514;2024-02-28T03:34:24;95595.47;;;5.24;90.82
20860;BME280;10590;48.154;11.514;2024-02-28T03:39:46;95599.78;;;5.15;90.32
20860;BME280;10590;48.154;11.514;2024-02-28T03:45:09;95600.00;;;5.18;91.14
20860;BME280;10590;48.154;11.514;2024-02-28T03:50:30;95603.56;;;5.56;90.15
20860;BME280;10590;48.154;11.514;2024-02-28T03:55:52;95630.09;;;5.51;89.08
20860;BME280;10590;48.154;11.514;2024-02-28T04:01:15;95620.97;;;5.62;88.20
20860;BME280;10590;48.154;11.514;2024-02-28T04:06:37;95630.34;;;5.73;87.34
20860;BME280;10590;48.154;11.514;2024-02-28T04:11:59;95637.91;;;5.61;87.60
20860;BME280;10590;48.154;11.514;2024-02-28T04:17:22;95638.13;;;5.41;88.40
20860;BME280;10590;48.154;11.514;2024-02-28T04:22:44;95651.19;;;5.56;87.34
20860;BME280;10590;48.154;11.514;2024-02-28T04:28:06;95655.09;;;5.40;89.09
20860;BME280;10590;48.154;11.514;2024-02-28T04:33:29;95663.34;;;5.04;90.10
20860;BME280;10590;48.154;11.514;2024-02-28T04:38:51;95664.28;;;5.19;90.18
20860;BME280;10590;48.154;11.514;2024-02-28T04:44:12;95662.22;;;5.10;90.52
20860;BME280;10590;48.154;11.514;2024-02-28T04:49:37;95668.09;;;5.07;90.33
20860;BME280;10590;48.154;11.514;2024-02-28T04:54:59;95669.44;;;5.05;90.18
20860;BME280;10590;48.154;11.514;2024-02-28T05:00:21;95680.41;;;5.17;89.78
20860;BME280;10590;48.154;11.514;2024-02-28T05:05:44;95699.44;;;5.24;90.00
20860;BME280;10590;48.154;11.514;2024-02-28T05:11:06;95692.31;;;5.20;89.58
20860;BME280;10590;48.154;11.514;2024-02-28T05:16:28;95699.19;;;5.21;89.90
20860;BME280;10590;48.154;11.514;2024-02-28T05:21:51;95709.16;;;5.29;89.23
20860;BME280;10590;48.154;11.514;2024-02-28T05:27:13;95707.03;;;5.31;89.18
20860;BME280;10590;48.154;11.514;2024-02-28T05:32:34;95703.88;;;5.29;89.40
20860;BME280;10590;48.154;11.514;2024-02-28T05:37:58;95717.38;;;5.27;89.10
20860;BME280;10590;48.154;11.514;2024-02-28T05:43:19;95739.38;;;5.23;89.35
20860;BME280;10590;48.154;11.514;2024-02-28T05:48:41;95744.72;;;5.12;90.53
20860;BME280;10590;48.154;11.514;2024-02-28T05:54:04;95751.78;;;5.27;89.27
20860;BME280;10590;48.154;11.514;2024-02-28T05:59:26;95764.78;;;5.24;89.68
20860;BME280;10590;48.154;11.514;2024-02-28T06:04:48;95763.72;;;5.25;89.65
20860;BME280;10590;48.154;11.514;2024-02-28T06:10:11;95754.28;;;5.08;89.93
20860;BME280;10590;48.154;11.514;2024-02-28T06:15:32;95777.81;;;5.10;90.04
20860;BME280;10590;48.154;11.514;2024-02-28T06:20:55;95793.09;;;5.18;90.57
20860;BME280;10590;48.154;11.514;2024-02-28T06:26:18;95786.59;;;5.00;91.44
20860;BME280;10590;48.154;11.514;2024-02-28T06:31:40;95810.72;;;5.33;89.76
20860;BME280;10590;48.154;11.514;2024-02-28T06:37:01;95812.25;;;5.39;89.18
20860;BME280;10590;48.154;11.514;2024-02-28T06:42:25;95811.75;;;5.37;88.89
20860;BME280;10590;48.154;11.514;2024-02-28T06:47:47;95835.59;;;5.32;89.85
20860;BME280;10590;48.154;11.514;2024-02-28T06:53:08;95820.31;;;5.58;87.98
20860;BME280;10590;48.154;11.514;2024-02-28T06:58:32;95835.81;;;5.40;88.63
20860;BME280;10590;48.154;11.514;2024-02-28T07:03:53;95844.88;;;5.63;86.50
20860;BME280;10590;48.154;11.514;2024-02-28T07:09:15;95856.72;;;5.71;86.33
20860;BME280;10590;48.154;11.514;2024-02-28T07:14:38;95851.19;;;5.67;86.44
20860;BME280;10590;48.154;11.514;2024-02-28T07:20:00;95855.16;;;5.70;87.03
20860;BME280;10590;48.154;11.514;2024-02-28T07:25:22;95852.13;;;5.82;86.38
20860;BME280;10590;48.154;11.514;2024-02-28T07:30:45;95837.94;;;6.01;85.21
20860;BME280;10590;48.154;11.514;2024-02-28T07:36:08;95849.63;;;5.66;86.90
20860;BME280;10590;48.154;11.514;2024-02-28T07:41:30;95854.91;;;5.66;87.42
20860;BME280;10590;48.154;11.514;2024-02-28T07:46:53;95850.53;;;5.52;87.55
20860;BME280;10590;48.154;11.514;2024-02-28T07:52:15;95848.09;;;5.60;87.40
20860;BME280;10590;48.154;11.514;2024-02-28T07:57:37;95858.13;;;5.63;87.51
20860;BME280;10590;48.154;11.514;2024-02-28T08:03:01;95859.84;;;5.78;86.05
20860;BME280;10590;48.154;11.514;2024-02-28T08:08:23;95874.78;;;5.98;85.49
20860;BME280;10590;48.154;11.514;2024-02-28T08:13:44;95864.25;;;5.93;85.36
20860;BME280;10590;48.154;11.514;2024-02-28T08:19:07;95882.09;;;5.77;84.45
20860;BME280;10590;48.154;11.514;2024-02-28T08:24:29;95869.09;;;6.15;84.29
20860;BME280;10590;48.154;11.514;2024-02-28T08:29:51;95867.84;;;6.02;84.65
20860;BME280;10590;48.154;11.514;2024-02-28T08:35:14;95894.06;;;6.03;84.49
20860;BME280;10590;48.154;11.514;2024-02-28T08:40:36;95907.22;;;5.80;85.26
20860;BME280;10590;48.154;11.514;2024-02-28T08:45:57;95896.16;;;6.06;85.30
20860;BME280;10590;48.154;11.514;2024-02-28T08:51:20;95906.06;;;5.96;85.82
20860;BME280;10590;48.154;11.514;2024-02-28T08:56:42;95911.31;;;6.01;86.07
20860;BME280;10590;48.154;11.514;2024-02-28T09:02:04;95910.63;;;6.19;84.17
20860;BME280;10590;48.154;11.514;2024-02-28T09:07:27;95914.38;;;5.79;86.13
20860;BME280;10590;48.154;11.514;2024-02-28T09:12:48;95920.78;;;6.12;85.03
20860;BME280;10590;48.154;11.514;2024-02-28T09:18:10;95923.53;;;5.97;85.65
20860;BME280;10590;48.154;11.514;2024-02-28T09:23:33;95919.31;;;5.96;85.69
20860;BME280;10590;48.154;11.514;2024-02-28T09:28:55;95939.66;;;6.00;85.59
20860;BME280;10590;48.154;11.514;2024-02-28T09:34:16;95942.41;;;5.85;85.73
20860;BME280;10590;48.154;11.514;2024-02-28T09:39:40;95946.19;;;5.74;87.30
20860;BME280;10590;48.154;11.514;2024-02-28T09:45:02;95950.81;;;5.97;86.41
20860;BME280;10590;48.154;11.514;2024-02-28T09:50:25;95944.13;;;6.05;85.62
20860;BME280;10590;48.154;11.514;2024-02-28T09:55:49;95948.19;;;6.26;84.25
20860;BME280;10590;48.154;11.514;2024-02-28T10:01:11;95957.78;;;6.22;84.03
20860;BME280;10590;48.154;11.514;2024-02-28T10:06:37;95952.38;;;6.32;83.71
20860;BME280;10590;48.154;11.514;2024-02-28T10:12:02;95949.16;;;6.35;83.76
20860;BME280;10590;48.154;11.514;2024-02-28T10:17:24;95952.28;;;6.90;81.16
20860;BME280;10590;48.154;11.514;2024-02-28T10:22:45;95952.00;;;7.16;78.55
20860;BME280;10590;48.154;11.514;2024-02-28T10:28:09;95948.41;;;6.83;80.86
20860;BME280;10590;48.154;11.514;2024-02-28T10:33:32;95966.03;;;6.97;79.23
20860;BME280;10590;48.154;11.514;2024-02-28T10:38:55;95958.66;;;6.94;79.33
20860;BME280;10590;48.154;11.514;2024-02-28T10:44:20;95959.25;;;6.86;79.13
20860;BME280;10590;48.154;11.514;2024-02-28T10:49:42;95962.31;;;7.41;77.21
20860;BME280;10590;48.154;11.514;2024-02-28T10:55:08;95970.91;;;7.71;75.77
20860;BME280;10590;48.154;11.514;2024-02-28T11:00:31;95969.34;;;7.70;75.40
20860;BME280;10590;48.154;11.514;2024-02-28T11:05:54;95971.50;;;7.67;75.84
20860;BME280;10590;48.154;11.514;2024-02-28T11:11:17;95969.53;;;7.35;76.07
20860;BME280;10590;48.154;11.514;2024-02-28T11:16:42;95976.00;;;7.29;76.58
20860;BME280;10590;48.154;11.514;2024-02-28T11:22:06;95973.31;;;7.11;78.88
20860;BME280;10590;48.154;11.514;2024-02-28T11:27:28;95982.66;;;7.27;78.20
20860;BME280;10590;48.154;11.514;2024-02-28T11:32:53;95986.91;;;7.28;78.15
20860;BME280;10590;48.154;11.514;2024-02-28T11:38:15;95980.25;;;7.49;77.43
20860;BME280;10590;48.154;11.514;2024-02-28T11:43:37;95978.94;;;7.47;77.19
20860;BME280;10590;48.154;11.514;2024-02-28T11:49:00;95991.19;;;7.24;78.57
20860;BME280;10590;48.154;11.514;2024-02-28T11:54:22;95982.56;;;7.13;79.56
20860;BME280;10590;48.154;11.514;2024-02-28T11:59:44;95992.50;;;7.45;77.70
20860;BME280;10590;48.154;11.514;2024-02-28T12:05:08;95990.06;;;6.82;80.14
20860;BME280;10590;48.154;11.514;2024-02-28T12:10:31;95989.09;;;7.21;78.91
20860;BME280;10590;48.154;11.514;2024-02-28T12:15:52;95979.66;;;7.33;78.33
20860;BME280;10590;48.154;11.514;2024-02-28T12:21:15;95990.25;;;7.15;78.30
20860;BME280;10590;48.154;11.514;2024-02-28T12:26:37;95982.72;;;7.22;77.89
20860;BME280;10590;48.154;11.514;2024-02-28T12:31:59;95988.66;;;7.14;78.11
20860;BME280;10590;48.154;11.514;2024-02-28T12:37:22;95992.47;;;6.79;79.69
20860;BME280;10590;48.154;11.514;2024-02-28T12:42:44;95991.00;;;7.39;77.35
20860;BME280;10590;48.154;11.514;2024-02-28T12:48:06;95987.84;;;7.75;75.71
20860;BME280;10590;48.154;11.514;2024-02-28T12:53:29;95982.44;;;7.85;75.50
20860;BME280;10590;48.154;11.514;2024-02-28T12:58:50;95977.69;;;7.82;75.39
20860;BME280;10590;48.154;11.514;2024-02-28T13:04:12;95984.19;;;7.71;75.11
20860;BME280;10590;48.154;11.514;2024-02-28T13:09:35;95984.41;;;7.55;75.69
20860;BME280;10590;48.154;11.514;2024-02-28T13:14:58;95983.25;;;7.61;75.76
20860;BME280;10590;48.154;11.514;2024-02-28T13:20:19;95986.72;;;7.81;75.46
20860;BME280;10590;48.154;11.514;2024-02-28T13:25:43;95989.06;;;7.45;75.71
20860;BME280;10590;48.154;11.514;2024-02-28T13:31:05;95990.38;;;7.66;75.03
20860;BME280;10590;48.154;11.514;2024-02-28T13:36:26;95987.34;;;7.54;75.84
20860;BME280;10590;48.154;11.514;2024-02-28T13:41:49;95989.78;;;7.50;75.90
20860;BME280;10590;48.154;11.514;2024-02-28T13:47:12;95994.38;;;7.63;76.63
20860;BME280;10590;48.154;11.514;2024-02-28T13:52:35;95993.75;;;7.72;75.25
20860;BME280;10590;48.154;11.514;2024-02-28T13:57:58;95982.63;;;7.51;74.86
20860;BME280;10590;48.154;11.514;2024-02-28T14:03:19;95982.09;;;7.49;74.01
20860;BME280;10590;48.154;11.514;2024-02-28T14:08:43;95989.72;;;7.55;75.57
20860;BME280;10590;48.154;11.514;2024-02-28T14:14:07;95991.72;;;7.63;74.54
20860;BME280;10590;48.154;11.514;2024-02-28T14:19:28;95998.91;;;7.44;75.35
20860;BME280;10590;48.154;11.514;2024-02-28T14:24:51;95990.66;;;7.46;75.50
20860;BME280;10590;48.154;11.514;2024-02-28T14:30:14;95995.81;;;7.37;75.67
20860;BME280;10590;48.154;11.514;2024-02-28T14:35:36;96007.56;;;7.31;75.54
20860;BME280;10590;48.154;11.514;2024-02-28T14:40:59;96011.78;;;7.32;75.91
20860;BME280;10590;48.154;11.514;2024-02-28T14:46:22;96011.13;;;7.21;77.34
20860;BME280;10590;48.154;11.514;2024-02-28T14:51:45;96012.78;;;7.17;77.14
20860;BME280;10590;48.154;11.514;2024-02-28T14:57:08;96016.84;;;7.52;75.49
20860;BME280;10590;48.154;11.514;2024-02-28T15:02:31;96009.88;;;7.14;76.62
20860;BME280;10590;48.154;11.514;2024-02-28T15:07:53;96005.28;;;7.00;76.51
20860;BME280;10590;48.154;11.514;2024-02-28T15:13:17;96019.41;;;7.39;75.92
20860;BME280;10590;48.154;11.514;2024-02-28T15:18:40;96014.84;;;7.20;75.24
20860;BME280;10590;48.154;11.514;2024-02-28T15:24:02;96005.47;;;7.28;74.32
20860;BME280;10590;48.154;11.514;2024-02-28T15:29:23;96012.81;;;7.36;74.82
20860;BME280;10590;48.154;11.514;2024-02-28T15:34:49;96011.34;;;7.25;75.19
20860;BME280;10590;48.154;11.514;2024-02-28T15:40:11;96012.38;;;7.29;74.78
20860;BME280;10590;48.154;11.514;2024-02-28T15:45:34;95997.78;;;7.26;75.06
20860;BME280;10590;48.154;11.514;2024-02-28T15:50:57;96016.78;;;7.57;74.55
20860;BME280;10590;48.154;11.514;2024-02-28T15:56:19;96022.53;;;7.64;72.42
20860;BME280;10590;48.154;11.514;2024-02-28T16:01:41;96012.59;;;7.51;73.42
20860;BME280;10590;48.154;11.514;2024-02-28T16:07:04;96029.13;;;7.67;72.62
20860;BME280;10590;48.154;11.514;2024-02-28T16:12:27;96021.53;;;7.60;72.84
20860;BME280;10590;48.154;11.514;2024-02-28T16:17:50;96022.06;;;7.39;72.50
20860;BME280;10590;48.154;11.514;2024-02-28T16:23:14;96028.84;;;7.26;72.96
20860;BME280;10590;48.154;11.514;2024-02-28T16:28:35;96033.25;;;7.12;74.28
20860;BME280;10590;48.154;11.514;2024-02-28T16:33:57;96015.47;;;6.59;75.31
20860;BME280;10590;48.154;11.514;2024-02-28T16:39:20;96031.66;;;6.87;76.22
20860;BME280;10590;48.154;11.514;2024-02-28T16:44:42;96020.66;;;7.22;74.03
20860;BME280;10590;48.154;11.514;2024-02-28T16:50:05;96026.72;;;6.75;76.32
20860;BME280;10590;48.154;11.514;2024-02-28T16:55:28;96028.72;;;6.88;75.87
20860;BME280;10590;48.154;11.514;2024-02-28T17:00:50;96028.50;;;6.85;75.93
20860;BME280;10590;48.154;11.514;2024-02-28T17:06:11;96022.38;;;6.84;76.28
20860;BME280;10590;48.154;11.514;2024-02-28T17:11:35;96043.72;;;6.74;76.08
20860;BME280;10590;48.154;11.514;2024-02-28T17:16:56;96048.53;;;6.67;76.91
20860;BME280;10590;48.154;11.514;2024-02-28T17:22:18;96048.25;;;6.39;78.11
20860;BME280;10590;48.154;11.514;2024-02-28T17:27:44;96054.88;;;6.71;76.66
20860;BME280;10590;48.154;11.514;2024-02-28T17:33:05;96047.88;;;6.80;76.71
20860;BME280;10590;48.154;11.514;2024-02-28T17:38:27;96060.66;;;6.78;76.94
20860;BME280;10590;48.154;11.514;2024-02-28T17:43:50;96062.22;;;6.79;76.61
20860;BME280;10590;48.154;11.514;2024-02-28T17:49:12;96058.06;;;6.39;78.66
20860;BME280;10590;48.154;11.514;2024-02-28T17:54:34;96061.66;;;6.19;80.18
20860;BME280;10590;48.154;11.514;2024-02-28T17:59:59;96061.44;;;6.50;79.47
20860;BME280;10590;48.154;11.514;2024-02-28T18:05:21;96063.84;;;6.12;80.90
20860;BME280;10590;48.154;11.514;2024-02-28T18:10:45;96068.91;;;5.49;84.62
20860;BME280;10590;48.154;11.514;2024-02-28T18:16:10;96065.84;;;5.76;83.51
20860;BME280;10590;48.154;11.514;2024-02-28T18:21:32;96060.16;;;6.03;82.39
20860;BME280;10590;48.154;11.514;2024-02-28T18:26:54;96040.56;;;6.04;82.47
20860;BME280;10590;48.154;11.514;2024-02-28T18:32:17;96052.94;;;6.19;81.93
20860;BME280;10590;48.154;11.514;2024-02-28T18:37:39;96058.94;;;6.29;81.82
20860;BME280;10590;48.154;11.514;2024-02-28T18:43:02;96047.81;;;6.27;81.84
20860;BME280;10590;48.154;11.514;2024-02-28T18:48:25;96057.91;;;6.25;82.04
20860;BME280;10590;48.154;11.514;2024-02-28T18:53:48;96036.16;;;6.28;80.84
20860;BME280;10590;48.154;11.514;2024-02-28T18:59:13;96060.56;;;6.25;81.86
20860;BME280;10590;48.154;11.514;2024-02-28T19:04:36;96053.25;;;6.12;81.47
20860;BME280;10590;48.154;11.514;2024-02-28T19:09:59;96052.78;;;5.95;82.26
20860;BME280;10590;48.154;11.514;2024-02-28T19:15:21;96049.97;;;6.25;81.41
20860;BME280;10590;48.154;11.514;2024-02-28T19:20:44;96053.94;;;6.23;81.19
20860;BME280;10590;48.154;11.514;2024-02-28T19:26:08;96052.03;;;5.89;82.98
20860;BME280;10590;48.154;11.514;2024-02-28T19:31:30;96049.00;;;6.11;81.91
20860;BME280;10590;48.154;11.514;2024-02-28T19:36:53;96053.28;;;6.02;82.08
20860;BME280;10590;48.154;11.514;2024-02-28T19:42:14;96055.81;;;5.73;82.46
20860;BME280;10590;48.154;11.514;2024-02-28T19:47:36;96061.56;;;5.85;82.64
20860;BME280;10590;48.154;11.514;2024-02-28T19:53:02;96046.75;;;5.30;83.59
20860;BME280;10590;48.154;11.514;2024-02-28T19:58:24;96059.09;;;5.50;83.17
20860;BME280;10590;48.154;11.514;2024-02-28T20:03:47;96071.06;;;5.96;82.12
20860;BME280;10590;48.154;11.514;2024-02-28T20:09:10;96065.84;;;5.76;81.65
20860;BME280;10590;48.154;11.514;2024-02-28T20:14:32;96045.53;;;5.66;82.30
20860;BME280;10590;48.154;11.514;2024-02-28T20:19:56;96064.22;;;5.16;83.85
20860;BME280;10590;48.154;11.514;2024-02-28T20:25:19;96063.19;;;5.06;85.18
20860;BME280;10590;48.154;11.514;2024-02-28T20:30:40;96053.09;;;5.34;83.77
20860;BME280;10590;48.154;11.514;2024-02-28T20:36:02;96029.84;;;5.16;83.23
20860;BME280;10590;48.154;11.514;2024-02-28T20:41:27;96059.97;;;5.89;80.86
20860;BME280;10590;48.154;11.514;2024-02-28T20:46:49;96054.69;;;5.30;81.97
20860;BME280;10590;48.154;11.514;2024-02-28T20:52:11;96063.97;;;5.17;82.33
20860;BME280;10590;48.154;11.514;2024-02-28T20:57:34;96055.13;;;5.52;81.18
20860;BME280;10590;48.154;11.514;2024-02-28T21:02:56;96051.25;;;5.84;79.50
20860;BME280;10590;48.154;11.514;2024-02-28T21:08:17;96049.13;;;5.86;79.14
20860;BME280;10590;48.154;11.514;2024-02-28T21:13:41;96047.84;;;5.24;80.57
20860;BME280;10590;48.154;11.514;2024-02-28T21:19:03;96029.50;;;5.42;80.17
20860;BME280;10590;48.154;11.514;2024-02-28T21:24:24;96040.34;;;5.41;80.32
20860;BME280;10590;48.154;11.514;2024-02-28T21:29:47;96045.44;;;5.27;80.74
20860;BME280;10590;48.154;11.514;2024-02-28T21:35:10;96041.00;;;5.67;80.20
20860;BME280;10590;48.154;11.514;2024-02-28T21:40:32;96037.69;;;5.46;80.28
20860;BME280;10590;48.154;11.514;2024-02-28T21:45:56;96033.28;;;5.21;81.73
20860;BME280;10590;48.154;11.514;2024-02-28T21:51:17;96019.28;;;5.10;82.25
20860;BME280;10590;48.154;11.514;2024-02-28T21:56:39;96008.56;;;5.46;81.56
20860;BME280;10590;48.154;11.514;2024-02-28T22:02:03;96025.44;;;5.60;82.60
20860;BME280;10590;48.154;11.514;2024-02-28T22:07:24;96030.09;;;5.79;80.90
20860;BME280;10590;48.154;11.514;2024-02-28T22:12:46;96012.59;;;5.33;83.03
20860;BME280;10590;48.154;11.514;2024-02-28T22:18:09;95996.38;;;5.50;81.82
20860;BME280;10590;48.154;11.514;2024-02-28T22:23:31;96006.28;;;5.24;83.57
20860;BME280;10590;48.154;11.514;2024-02-28T22:28:52;96011.25;;;5.41;82.56
20860;BME280;10590;48.154;11.514;2024-02-28T22:34:16;95993.84;;;5.20;83.01
20860;BME280;10590;48.154;11.514;2024-02-28T22:39:37;95993.41;;;5.02;83.11
20860;BME280;10590;48.154;11.514;2024-02-28T22:44:59;96001.28;;;5.23;82.28
20860;BME280;10590;48.154;11.514;2024-02-28T22:50:22;95993.88;;;5.15;82.48
20860;BME280;10590;48.154;11.514;2024-02-28T22:55:44;95988.13;;;4.97;82.72
20860;BME280;10590;48.154;11.514;2024-02-28T23:01:05;95980.91;;;5.13;82.09
20860;BME280;10590;48.154;11.514;2024-02-28T23:06:28;95975.16;;;4.96;82.86
20860;BME280;10590;48.154;11.514;2024-02-28T23:11:50;95971.69;;;5.10;82.05
20860;BME280;10590;48.154;11.514;2024-02-28T23:17:12;95974.84;;;5.12;81.89
20860;BME280;10590;48.154;11.514;2024-02-28T23:22:36;95964.75;;;5.20;81.30
20860;BME280;10590;48.154;11.514;2024-02-28T23:27:58;95973.78;;;5.13;81.98
20860;BME280;10590;48.154;11.514;2024-02-28T23:33:20;95972.59;;;5.45;80.18
20860;BME280;10590;48.154;11.514;2024-02-28T23:38:44;95961.94;;;5.55;79.93
20860;BME280;10590;48.154;11.514;2024-02-28T23:44:06;95957.72;;;5.54;80.05
20860;BME280;10590;48.154;11.514;2024-02-28T23:49:28;95945.34;;;4.80;81.98
20860;BME280;10590;48.154;11.514;2024-02-28T23:54:51;95955.63;;;5.46;80.41
